sensor_id;sensor_type;location;lat;lon;timestamp;pressure;altitude;pressure_sealevel;temperature;humidity
64644;BME280;51056;50.330;7.914;2022-07-24T00:00:38;101060.31;;;17.94;68.65
64644;BME280;51056;50.330;7.914;2022-07-24T00:03:42;101058.72;;;17.92;68.57
64644;BME280;51056;50.330;7.914;2022-07-24T00:06:45;101059.28;;;17.60;69.54
64644;BME280;51056;50.330;7.914;2022-07-24T00:09:49;101060.25;;;17.59;69.82
64644;BME280;51056;50.330;7.914;2022-07-24T00:12:52;101053.94;;;17.49;70.06
64644;BME280;51056;50.330;7.914;2022-07-24T00:15:55;101057.69;;;17.33;70.28
64644;BME280;51056;50.330;7.914;2022-07-24T00:18:59;101064.53;;;17.49;69.56
64644;BME280;51056;50.330;7.914;2022-07-24T00:22:02;101061.13;;;17.47;69.79
64644;BME280;51056;50.330;7.914;2022-07-24T00:25:05;101058.81;;;17.42;70.18
64644;BME280;51056;50.330;7.914;2022-07-24T00:28:09;101056.59;;;17.49;70.15
64644;BME280;51056;50.330;7.914;2022-07-24T00:31:12;101052.59;;;17.43;70.25
64644;BME280;51056;50.330;7.914;2022-07-24T00:34:15;101057.47;;;17.36;70.49
64644;BME280;51056;50.330;7.914;2022-07-24T00:37:21;101062.59;;;17.51;69.99
64644;BME280;51056;50.330;7.914;2022-07-24T00:40:27;101063.69;;;17.35;70.70
64644;BME280;51056;50.330;7.914;2022-07-24T00:43:33;101064.59;;;17.23;70.44
64644;BME280;51056;50.330;7.914;2022-07-24T00:46:39;101068.13;;;17.11;71.03
64644;BME280;51056;50.330;7.914;2022-07-24T00:49:42;101062.69;;;17.25;70.94
64644;BME280;51056;50.330;7.914;2022-07-24T00:52:46;101056.78;;;17.22;70.77
64644;BME280;51056;50.330;7.914;2022-07-24T00:55:50;101052.47;;;17.08;71.52
64644;BME280;51056;50.330;7.914;2022-07-24T00:58:54;101058.44;;;16.86;72.10
64644;BME280;51056;50.330;7.914;2022-07-24T01:01:57;101053.88;;;16.88;72.25
64644;BME280;51056;50.330;7.914;2022-07-24T01:05:01;101059.06;;;16.77;72.14
64644;BME280;51056;50.330;7.914;2022-07-24T01:08:05;101063.34;;;17.03;71.37
64644;BME280;51056;50.330;7.914;2022-07-24T01:11:09;101054.38;;;17.06;71.27
64644;BME280;51056;50.330;7.914;2022-07-24T01:14:16;101054.53;;;16.91;71.59
64644;BME280;51056;50.330;7.914;2022-07-24T01:17:20;101055.78;;;16.73;72.23
64644;BME280;51056;50.330;7.914;2022-07-24T01:20:23;101056.41;;;16.64;72.86
64644;BME280;51056;50.330;7.914;2022-07-24T01:23:26;101048.16;;;16.68;72.11
64644;BME280;51056;50.330;7.914;2022-07-24T01:26:30;101050.16;;;16.65;72.75
64644;BME280;51056;50.330;7.914;2022-07-24T01:29:33;101053.13;;;16.73;72.39
64644;BME280;51056;50.330;7.914;2022-07-24T01:32:37;101052.50;;;16.44;72.76
64644;BME280;51056;50.330;7.914;2022-07-24T01:35:41;101056.81;;;16.58;72.67
64644;BME280;51056;50.330;7.914;2022-07-24T01:38:45;101052.16;;;16.74;72.08
64644;BME280;51056;50.330;7.914;2022-07-24T01:41:48;101047.84;;;16.73;72.22
64644;BME280;51056;50.330;7.914;2022-07-24T01:44:51;101051.22;;;16.62;72.91
64644;BME280;51056;50.330;7.914;2022-07-24T01:47:55;101050.06;;;16.41;73.56
64644;BME280;51056;50.330;7.914;2022-07-24T01:50:58;101053.75;;;16.38;73.73
64644;BME280;51056;50.330;7.914;2022-07-24T01:54:02;101051.75;;;16.55;73.13
64644;BME280;51056;50.330;7.914;2022-07-24T01:57:05;101050.50;;;16.47;73.50
64644;BME280;51056;50.330;7.914;2022-07-24T02:00:09;101056.41;;;16.38;73.66
64644;BME280;51056;50.330;7.914;2022-07-24T02:03:19;101058.06;;;16.26;74.17
64644;BME280;51056;50.330;7.914;2022-07-24T02:06:23;101058.25;;;16.11;74.78
64644;BME280;51056;50.330;7.914;2022-07-24T02:09:27;101058.47;;;16.08;75.21
64644;BME280;51056;50.330;7.914;2022-07-24T02:12:30;101054.69;;;16.12;74.75
64644;BME280;51056;50.330;7.914;2022-07-24T02:15:33;101055.09;;;16.06;74.79
64644;BME280;51056;50.330;7.914;2022-07-24T02:18:37;101063.31;;;16.01;75.15
64644;BME280;51056;50.330;7.914;2022-07-24T02:21:40;101065.22;;;15.99;74.78
64644;BME280;51056;50.330;7.914;2022-07-24T02:24:43;101053.31;;;16.19;74.13
64644;BME280;51056;50.330;7.914;2022-07-24T02:27:47;101063.53;;;16.11;74.20
64644;BME280;51056;50.330;7.914;2022-07-24T02:30:50;101054.28;;;16.18;74.15
64644;BME280;51056;50.330;7.914;2022-07-24T02:33:54;101068.06;;;15.96;75.16
64644;BME280;51056;50.330;7.914;2022-07-24T02:36:57;101063.50;;;15.98;75.00
64644;BME280;51056;50.330;7.914;2022-07-24T02:40:00;101064.34;;;15.98;74.68
64644;BME280;51056;50.330;7.914;2022-07-24T02:43:04;101067.94;;;15.97;75.01
64644;BME280;51056;50.330;7.914;2022-07-24T02:46:08;101064.81;;;16.05;75.16
64644;BME280;51056;50.330;7.914;2022-07-24T02:49:11;101071.13;;;16.02;75.23
64644;BME280;51056;50.330;7.914;2022-07-24T02:52:15;101070.88;;;15.93;75.22
64644;BME280;51056;50.330;7.914;2022-07-24T02:55:18;101066.25;;;15.96;75.19
64644;BME280;51056;50.330;7.914;2022-07-24T02:58:22;101070.50;;;15.99;74.97
64644;BME280;51056;50.330;7.914;2022-07-24T03:01:25;101070.09;;;16.05;74.68
64644;BME280;51056;50.330;7.914;2022-07-24T03:04:29;101071.50;;;15.84;75.83
64644;BME280;51056;50.330;7.914;2022-07-24T03:07:33;101072.19;;;15.73;76.36
64644;BME280;51056;50.330;7.914;2022-07-24T03:10:36;101066.06;;;15.72;76.48
64644;BME280;51056;50.330;7.914;2022-07-24T03:13:40;101064.81;;;15.78;76.26
64644;BME280;51056;50.330;7.914;2022-07-24T03:16:43;101073.50;;;15.66;76.76
64644;BME280;51056;50.330;7.914;2022-07-24T03:19:46;101072.50;;;15.68;76.66
64644;BME280;51056;50.330;7.914;2022-07-24T03:22:50;101069.63;;;15.98;75.48
64644;BME280;51056;50.330;7.914;2022-07-24T03:25:53;101075.31;;;15.92;75.66
64644;BME280;51056;50.330;7.914;2022-07-24T03:28:57;101071.25;;;15.74;75.91
64644;BME280;51056;50.330;7.914;2022-07-24T03:32:01;101070.97;;;15.64;76.72
64644;BME280;51056;50.330;7.914;2022-07-24T03:35:05;101071.13;;;15.75;76.30
64644;BME280;51056;50.330;7.914;2022-07-24T03:38:08;101068.91;;;15.69;76.12
64644;BME280;51056;50.330;7.914;2022-07-24T03:41:11;101068.41;;;15.77;76.39
64644;BME280;51056;50.330;7.914;2022-07-24T03:44:15;101064.97;;;15.89;76.39
64644;BME280;51056;50.330;7.914;2022-07-24T03:47:18;101069.81;;;15.83;76.59
64644;BME280;51056;50.330;7.914;2022-07-24T03:50:21;101069.84;;;15.68;77.16
64644;BME280;51056;50.330;7.914;2022-07-24T03:53:25;101070.28;;;15.75;76.77
64644;BME280;51056;50.330;7.914;2022-07-24T03:56:28;101069.06;;;15.80;76.90
64644;BME280;51056;50.330;7.914;2022-07-24T03:59:32;101075.94;;;15.83;76.51
64644;BME280;51056;50.330;7.914;2022-07-24T04:02:35;101072.41;;;15.70;77.17
64644;BME280;51056;50.330;7.914;2022-07-24T04:05:39;101073.03;;;15.59;77.82
64644;BME280;51056;50.330;7.914;2022-07-24T04:08:42;101080.00;;;15.60;77.83
64644;BME280;51056;50.330;7.914;2022-07-24T04:11:45;101072.84;;;15.76;77.01
64644;BME280;51056;50.330;7.914;2022-07-24T04:14:49;101073.31;;;15.69;77.51
64644;BME280;51056;50.330;7.914;2022-07-24T04:17:53;101075.16;;;15.81;77.04
64644;BME280;51056;50.330;7.914;2022-07-24T04:20:56;101081.03;;;15.72;77.40
64644;BME280;51056;50.330;7.914;2022-07-24T04:23:59;101075.88;;;15.70;77.53
64644;BME280;51056;50.330;7.914;2022-07-24T04:27:03;101074.63;;;15.76;77.64
64644;BME280;51056;50.330;7.914;2022-07-24T04:30:08;101081.78;;;15.74;77.60
64644;BME280;51056;50.330;7.914;2022-07-24T04:33:12;101077.25;;;15.76;77.93
64644;BME280;51056;50.330;7.914;2022-07-24T04:36:16;101071.28;;;15.87;77.35
64644;BME280;51056;50.330;7.914;2022-07-24T04:39:23;101078.50;;;15.97;77.12
64644;BME280;51056;50.330;7.914;2022-07-24T04:42:29;101080.91;;;16.00;77.17
64644;BME280;51056;50.330;7.914;2022-07-24T04:45:34;101069.41;;;16.01;77.15
64644;BME280;51056;50.330;7.914;2022-07-24T04:48:37;101071.34;;;16.12;77.01
64644;BME280;51056;50.330;7.914;2022-07-24T04:51:41;101081.03;;;15.99;77.21
64644;BME280;51056;50.330;7.914;2022-07-24T04:54:46;101080.88;;;16.15;76.73
64644;BME280;51056;50.330;7.914;2022-07-24T04:57:52;101088.19;;;15.97;77.54
64644;BME280;51056;50.330;7.914;2022-07-24T05:00:56;101083.03;;;15.95;77.48
64644;BME280;51056;50.330;7.914;2022-07-24T05:03:59;101091.06;;;16.07;76.84
64644;BME280;51056;50.330;7.914;2022-07-24T05:07:04;101089.88;;;15.98;77.52
64644;BME280;51056;50.330;7.914;2022-07-24T05:10:08;101087.44;;;16.35;76.12
64644;BME280;51056;50.330;7.914;2022-07-24T05:13:12;101084.69;;;16.49;75.22
64644;BME280;51056;50.330;7.914;2022-07-24T05:16:15;101089.13;;;16.48;75.22
64644;BME280;51056;50.330;7.914;2022-07-24T05:19:19;101093.56;;;16.48;74.70
64644;BME280;51056;50.330;7.914;2022-07-24T05:22:22;101088.50;;;16.70;73.93
64644;BME280;51056;50.330;7.914;2022-07-24T05:25:25;101089.56;;;16.93;73.03
64644;BME280;51056;50.330;7.914;2022-07-24T05:28:29;101090.31;;;16.95;73.59
64644;BME280;51056;50.330;7.914;2022-07-24T05:31:36;101084.53;;;16.78;74.19
64644;BME280;51056;50.330;7.914;2022-07-24T05:34:46;101079.53;;;16.99;73.65
64644;BME280;51056;50.330;7.914;2022-07-24T05:37:50;101081.75;;;17.05;73.02
64644;BME280;51056;50.330;7.914;2022-07-24T05:41:00;101082.44;;;17.19;72.75
64644;BME280;51056;50.330;7.914;2022-07-24T05:44:07;101084.13;;;17.33;72.21
64644;BME280;51056;50.330;7.914;2022-07-24T05:47:11;101076.38;;;17.43;71.51
64644;BME280;51056;50.330;7.914;2022-07-24T05:50:20;101076.16;;;17.46;71.24
64644;BME280;51056;50.330;7.914;2022-07-24T05:53:27;101068.72;;;17.51;71.08
64644;BME280;51056;50.330;7.914;2022-07-24T05:56:31;101069.34;;;17.55;70.67
64644;BME280;51056;50.330;7.914;2022-07-24T05:59:34;101068.84;;;17.50;71.52
64644;BME280;51056;50.330;7.914;2022-07-24T06:02:39;101062.09;;;17.46;71.79
64644;BME280;51056;50.330;7.914;2022-07-24T06:05:42;101062.16;;;17.57;72.26
64644;BME280;51056;50.330;7.914;2022-07-24T06:08:46;101067.66;;;17.54;72.05
64644;BME280;51056;50.330;7.914;2022-07-24T06:11:50;101066.53;;;17.69;71.66
64644;BME280;51056;50.330;7.914;2022-07-24T06:14:53;101059.13;;;17.74;71.02
64644;BME280;51056;50.330;7.914;2022-07-24T06:17:57;101054.88;;;17.84;71.43
64644;BME280;51056;50.330;7.914;2022-07-24T06:21:00;101052.84;;;17.88;71.44
64644;BME280;51056;50.330;7.914;2022-07-24T06:24:04;101052.06;;;18.10;70.44
64644;BME280;51056;50.330;7.914;2022-07-24T06:27:10;101058.13;;;18.34;68.90
64644;BME280;51056;50.330;7.914;2022-07-24T06:30:15;101053.13;;;18.54;67.67
64644;BME280;51056;50.330;7.914;2022-07-24T06:33:22;101050.22;;;18.68;67.23
64644;BME280;51056;50.330;7.914;2022-07-24T06:36:25;101052.19;;;18.77;66.96
64644;BME280;51056;50.330;7.914;2022-07-24T06:39:30;101048.78;;;18.64;67.18
64644;BME280;51056;50.330;7.914;2022-07-24T06:42:33;101040.88;;;18.75;67.06
64644;BME280;51056;50.330;7.914;2022-07-24T06:45:37;101035.47;;;18.77;67.27
64644;BME280;51056;50.330;7.914;2022-07-24T06:48:41;101038.47;;;18.84;67.41
64644;BME280;51056;50.330;7.914;2022-07-24T06:51:45;101037.97;;;19.01;66.58
64644;BME280;51056;50.330;7.914;2022-07-24T06:54:51;101032.41;;;19.04;66.84
64644;BME280;51056;50.330;7.914;2022-07-24T06:57:57;101036.41;;;19.21;65.10
64644;BME280;51056;50.330;7.914;2022-07-24T07:01:01;101029.63;;;19.28;64.69
64644;BME280;51056;50.330;7.914;2022-07-24T07:04:04;101041.03;;;19.40;64.10
64644;BME280;51056;50.330;7.914;2022-07-24T07:07:08;101041.13;;;19.49;63.53
64644;BME280;51056;50.330;7.914;2022-07-24T07:10:12;101035.19;;;19.57;62.52
64644;BME280;51056;50.330;7.914;2022-07-24T07:13:16;101034.59;;;19.65;63.10
64644;BME280;51056;50.330;7.914;2022-07-24T07:16:19;101037.31;;;19.74;63.31
64644;BME280;51056;50.330;7.914;2022-07-24T07:19:22;101034.06;;;19.82;62.75
64644;BME280;51056;50.330;7.914;2022-07-24T07:22:26;101036.78;;;19.92;62.15
64644;BME280;51056;50.330;7.914;2022-07-24T07:25:29;101032.63;;;19.99;61.67
64644;BME280;51056;50.330;7.914;2022-07-24T07:28:33;101031.88;;;20.08;61.69
64644;BME280;51056;50.330;7.914;2022-07-24T07:31:36;101029.34;;;20.28;61.48
64644;BME280;51056;50.330;7.914;2022-07-24T07:34:40;101029.06;;;20.31;60.79
64644;BME280;51056;50.330;7.914;2022-07-24T07:37:46;101034.28;;;20.42;60.25
64644;BME280;51056;50.330;7.914;2022-07-24T07:40:50;101031.84;;;20.50;59.45
64644;BME280;51056;50.330;7.914;2022-07-24T07:57:05;101008.97;;;20.99;59.25
64644;BME280;51056;50.330;7.914;2022-07-24T08:00:10;101009.69;;;21.01;58.16
64644;BME280;51056;50.330;7.914;2022-07-24T08:03:18;101006.94;;;21.12;57.84
64644;BME280;51056;50.330;7.914;2022-07-24T08:06:21;101007.22;;;21.19;58.13
64644;BME280;51056;50.330;7.914;2022-07-24T08:09:25;101000.13;;;21.39;57.76
64644;BME280;51056;50.330;7.914;2022-07-24T08:12:29;100989.34;;;21.50;56.40
64644;BME280;51056;50.330;7.914;2022-07-24T08:15:33;100993.00;;;21.49;56.18
64644;BME280;51056;50.330;7.914;2022-07-24T08:18:36;100990.59;;;21.56;56.75
64644;BME280;51056;50.330;7.914;2022-07-24T08:21:39;100989.38;;;21.70;56.31
64644;BME280;51056;50.330;7.914;2022-07-24T08:24:44;100987.34;;;21.91;55.64
64644;BME280;51056;50.330;7.914;2022-07-24T08:27:47;100987.50;;;21.99;55.17
64644;BME280;51056;50.330;7.914;2022-07-24T08:30:50;100990.94;;;22.29;53.77
64644;BME280;51056;50.330;7.914;2022-07-24T08:33:55;100979.13;;;22.41;53.18
64644;BME280;51056;50.330;7.914;2022-07-24T08:36:58;100971.84;;;22.43;53.03
64644;BME280;51056;50.330;7.914;2022-07-24T08:40:03;100972.69;;;22.44;53.23
64644;BME280;51056;50.330;7.914;2022-07-24T08:43:08;100975.44;;;22.52;52.90
64644;BME280;51056;50.330;7.914;2022-07-24T08:46:14;100968.41;;;22.61;52.95
64644;BME280;51056;50.330;7.914;2022-07-24T08:49:19;100970.31;;;22.68;52.80
64644;BME280;51056;50.330;7.914;2022-07-24T08:52:24;100973.91;;;22.77;52.01
64644;BME280;51056;50.330;7.914;2022-07-24T08:55:29;100963.50;;;22.84;51.93
64644;BME280;51056;50.330;7.914;2022-07-24T08:58:37;100959.94;;;22.93;50.65
64644;BME280;51056;50.330;7.914;2022-07-24T09:01:40;100953.91;;;22.91;51.59
64644;BME280;51056;50.330;7.914;2022-07-24T09:04:46;100959.72;;;23.14;51.52
64644;BME280;51056;50.330;7.914;2022-07-24T09:07:50;100951.00;;;23.48;52.67
64644;BME280;51056;50.330;7.914;2022-07-24T09:11:10;100956.72;;;23.53;48.69
64644;BME280;51056;50.330;7.914;2022-07-24T09:14:13;100953.06;;;23.54;48.71
64644;BME280;51056;50.330;7.914;2022-07-24T09:17:35;100939.25;;;23.76;47.76
64644;BME280;51056;50.330;7.914;2022-07-24T09:20:38;100932.63;;;23.80;46.87
64644;BME280;51056;50.330;7.914;2022-07-24T09:23:42;100931.63;;;23.81;45.82
64644;BME280;51056;50.330;7.914;2022-07-24T09:26:54;100929.13;;;24.14;44.05
64644;BME280;51056;50.330;7.914;2022-07-24T09:30:02;100920.38;;;24.30;44.98
64644;BME280;51056;50.330;7.914;2022-07-24T09:33:15;100919.66;;;24.20;45.25
64644;BME280;51056;50.330;7.914;2022-07-24T09:36:19;100917.00;;;24.28;47.75
64644;BME280;51056;50.330;7.914;2022-07-24T09:39:26;100909.69;;;24.64;41.40
64644;BME280;51056;50.330;7.914;2022-07-24T09:42:31;100912.44;;;24.46;40.70
64644;BME280;51056;50.330;7.914;2022-07-24T09:48:59;100900.03;;;24.88;42.23
64644;BME280;51056;50.330;7.914;2022-07-24T09:52:15;100895.69;;;24.87;44.61
64644;BME280;51056;50.330;7.914;2022-07-24T09:55:22;100890.78;;;24.66;42.17
64644;BME280;51056;50.330;7.914;2022-07-24T09:58:27;100888.47;;;24.79;43.06
64644;BME280;51056;50.330;7.914;2022-07-24T10:01:32;100886.34;;;24.91;42.54
64644;BME280;51056;50.330;7.914;2022-07-24T10:04:41;100877.53;;;25.31;42.15
64644;BME280;51056;50.330;7.914;2022-07-24T10:08:04;100878.84;;;25.68;41.76
64644;BME280;51056;50.330;7.914;2022-07-24T10:11:12;100889.06;;;25.81;40.81
64644;BME280;51056;50.330;7.914;2022-07-24T10:14:18;100883.19;;;25.85;41.02
64644;BME280;51056;50.330;7.914;2022-07-24T10:21:04;100878.50;;;25.71;41.68
64644;BME280;51056;50.330;7.914;2022-07-24T10:30:24;100861.25;;;25.73;41.19
64644;BME280;51056;50.330;7.914;2022-07-24T10:33:29;100855.75;;;25.67;40.33
64644;BME280;51056;50.330;7.914;2022-07-24T10:36:38;100851.34;;;25.90;40.20
64644;BME280;51056;50.330;7.914;2022-07-24T10:40:18;100853.13;;;26.06;40.29
64644;BME280;51056;50.330;7.914;2022-07-24T10:43:24;100858.16;;;26.09;40.04
64644;BME280;51056;50.330;7.914;2022-07-24T10:46:27;100838.78;;;25.91;40.23
64644;BME280;51056;50.330;7.914;2022-07-24T10:49:47;100839.25;;;26.03;41.87
64644;BME280;51056;50.330;7.914;2022-07-24T10:53:20;100830.94;;;26.29;39.09
64644;BME280;51056;50.330;7.914;2022-07-24T10:56:28;100831.00;;;26.20;40.43
64644;BME280;51056;50.330;7.914;2022-07-24T10:59:44;100817.75;;;26.19;40.54
64644;BME280;51056;50.330;7.914;2022-07-24T11:03:07;100819.84;;;26.32;39.99
64644;BME280;51056;50.330;7.914;2022-07-24T11:06:11;100816.13;;;26.41;39.17
64644;BME280;51056;50.330;7.914;2022-07-24T11:09:17;100816.81;;;26.35;39.09
64644;BME280;51056;50.330;7.914;2022-07-24T11:12:30;100804.41;;;26.42;37.98
64644;BME280;51056;50.330;7.914;2022-07-24T11:22:37;100787.81;;;26.70;38.31
64644;BME280;51056;50.330;7.914;2022-07-24T11:25:42;100790.66;;;26.91;38.69
64644;BME280;51056;50.330;7.914;2022-07-24T11:29:21;100793.50;;;27.12;37.76
64644;BME280;51056;50.330;7.914;2022-07-24T11:32:27;100791.81;;;27.11;36.75
64644;BME280;51056;50.330;7.914;2022-07-24T11:35:35;100786.84;;;26.85;36.96
64644;BME280;51056;50.330;7.914;2022-07-24T11:38:39;100778.38;;;26.74;36.44
64644;BME280;51056;50.330;7.914;2022-07-24T11:41:49;100760.97;;;27.16;36.17
64644;BME280;51056;50.330;7.914;2022-07-24T11:44:53;100752.94;;;27.60;35.96
64644;BME280;51056;50.330;7.914;2022-07-24T11:47:57;100753.31;;;27.57;35.44
64644;BME280;51056;50.330;7.914;2022-07-24T11:51:05;100740.69;;;27.28;34.82
64644;BME280;51056;50.330;7.914;2022-07-24T11:54:12;100738.94;;;27.50;35.53
64644;BME280;51056;50.330;7.914;2022-07-24T11:57:39;100731.56;;;28.03;35.50
64644;BME280;51056;50.330;7.914;2022-07-24T12:00:43;100732.94;;;28.14;35.35
64644;BME280;51056;50.330;7.914;2022-07-24T12:03:56;100730.91;;;28.16;34.82
64644;BME280;51056;50.330;7.914;2022-07-24T12:07:01;100730.84;;;27.94;35.68
64644;BME280;51056;50.330;7.914;2022-07-24T12:10:09;100725.41;;;27.73;35.55
64644;BME280;51056;50.330;7.914;2022-07-24T12:13:12;100728.09;;;27.73;35.71
64644;BME280;51056;50.330;7.914;2022-07-24T12:16:26;100712.97;;;27.72;35.46
64644;BME280;51056;50.330;7.914;2022-07-24T12:19:31;100717.78;;;27.91;35.68
64644;BME280;51056;50.330;7.914;2022-07-24T12:22:35;100714.47;;;27.89;35.83
64644;BME280;51056;50.330;7.914;2022-07-24T12:25:40;100706.28;;;27.97;35.66
64644;BME280;51056;50.330;7.914;2022-07-24T12:28:43;100707.97;;;27.98;34.54
64644;BME280;51056;50.330;7.914;2022-07-24T12:31:47;100710.06;;;28.03;33.80
64644;BME280;51056;50.330;7.914;2022-07-24T12:34:50;100699.47;;;28.16;33.46
64644;BME280;51056;50.330;7.914;2022-07-24T12:37:54;100698.38;;;28.32;32.85
64644;BME280;51056;50.330;7.914;2022-07-24T12:41:04;100690.19;;;28.62;32.70
64644;BME280;51056;50.330;7.914;2022-07-24T12:44:07;100693.78;;;28.69;31.73
64644;BME280;51056;50.330;7.914;2022-07-24T12:47:15;100682.16;;;28.68;31.94
64644;BME280;51056;50.330;7.914;2022-07-24T12:50:18;100676.06;;;28.81;31.89
64644;BME280;51056;50.330;7.914;2022-07-24T12:53:22;100675.47;;;29.07;32.59
64644;BME280;51056;50.330;7.914;2022-07-24T12:56:33;100673.16;;;29.46;31.96
64644;BME280;51056;50.330;7.914;2022-07-24T12:59:43;100675.16;;;29.65;30.67
64644;BME280;51056;50.330;7.914;2022-07-24T13:02:50;100662.13;;;29.75;30.46
64644;BME280;51056;50.330;7.914;2022-07-24T13:05:56;100661.91;;;29.83;29.84
64644;BME280;51056;50.330;7.914;2022-07-24T13:09:00;100651.78;;;29.85;29.41
64644;BME280;51056;50.330;7.914;2022-07-24T13:12:05;100650.19;;;30.38;29.71
64644;BME280;51056;50.330;7.914;2022-07-24T13:15:08;100656.44;;;30.71;28.84
64644;BME280;51056;50.330;7.914;2022-07-24T13:18:12;100645.22;;;30.88;28.40
64644;BME280;51056;50.330;7.914;2022-07-24T13:21:16;100643.97;;;30.70;28.72
64644;BME280;51056;50.330;7.914;2022-07-24T13:24:21;100631.94;;;30.73;28.69
64644;BME280;51056;50.330;7.914;2022-07-24T13:27:24;100635.69;;;30.78;29.38
64644;BME280;51056;50.330;7.914;2022-07-24T13:30:28;100633.59;;;30.94;28.52
64644;BME280;51056;50.330;7.914;2022-07-24T13:33:31;100630.41;;;31.10;28.47
64644;BME280;51056;50.330;7.914;2022-07-24T13:36:35;100623.28;;;31.36;27.46
64644;BME280;51056;50.330;7.914;2022-07-24T13:39:38;100615.16;;;31.42;27.71
64644;BME280;51056;50.330;7.914;2022-07-24T13:42:43;100616.38;;;31.53;27.55
64644;BME280;51056;50.330;7.914;2022-07-24T13:45:46;100603.91;;;31.84;26.41
64644;BME280;51056;50.330;7.914;2022-07-24T13:48:51;100597.25;;;32.43;26.23
64644;BME280;51056;50.330;7.914;2022-07-24T13:51:55;100591.38;;;32.71;26.27
64644;BME280;51056;50.330;7.914;2022-07-24T13:54:58;100594.00;;;32.96;24.94
64644;BME280;51056;50.330;7.914;2022-07-24T13:58:01;100590.22;;;33.34;24.79
64644;BME280;51056;50.330;7.914;2022-07-24T14:01:06;100593.66;;;33.60;24.78
64644;BME280;51056;50.330;7.914;2022-07-24T14:04:09;100570.56;;;34.46;23.14
64644;BME280;51056;50.330;7.914;2022-07-24T14:07:13;100570.38;;;35.23;22.99
64644;BME280;51056;50.330;7.914;2022-07-24T14:10:17;100569.44;;;35.75;21.67
64644;BME280;51056;50.330;7.914;2022-07-24T14:13:21;100562.56;;;37.99;18.84
64644;BME280;51056;50.330;7.914;2022-07-24T14:16:29;100552.94;;;40.20;16.51
64644;BME280;51056;50.330;7.914;2022-07-24T14:19:33;100545.72;;;41.25;15.80
64644;BME280;51056;50.330;7.914;2022-07-24T14:22:40;100540.06;;;40.01;15.79
64644;BME280;51056;50.330;7.914;2022-07-24T14:25:44;100525.97;;;41.97;14.70
64644;BME280;51056;50.330;7.914;2022-07-24T14:28:47;100530.84;;;43.20;13.86
64644;BME280;51056;50.330;7.914;2022-07-24T14:31:51;100519.06;;;43.52;13.83
64644;BME280;51056;50.330;7.914;2022-07-24T14:34:54;100514.81;;;43.60;13.66
64644;BME280;51056;50.330;7.914;2022-07-24T14:37:58;100520.13;;;41.74;14.77
64644;BME280;51056;50.330;7.914;2022-07-24T14:41:02;100517.19;;;43.48;13.81
64644;BME280;51056;50.330;7.914;2022-07-24T14:44:06;100500.84;;;43.37;13.62
64644;BME280;51056;50.330;7.914;2022-07-24T14:47:09;100497.88;;;43.99;13.06
64644;BME280;51056;50.330;7.914;2022-07-24T14:50:13;100498.25;;;42.70;14.32
64644;BME280;51056;50.330;7.914;2022-07-24T14:53:16;100480.47;;;42.82;14.03
64644;BME280;51056;50.330;7.914;2022-07-24T14:56:20;100482.63;;;42.85;14.08
64644;BME280;51056;50.330;7.914;2022-07-24T14:59:23;100480.03;;;42.75;14.12
64644;BME280;51056;50.330;7.914;2022-07-24T15:02:26;100475.31;;;42.56;14.43
64644;BME280;51056;50.330;7.914;2022-07-24T15:05:30;100469.69;;;43.04;14.32
64644;BME280;51056;50.330;7.914;2022-07-24T15:08:34;100475.34;;;42.32;13.79
64644;BME280;51056;50.330;7.914;2022-07-24T15:11:37;100462.50;;;42.70;13.92
64644;BME280;51056;50.330;7.914;2022-07-24T15:14:41;100465.13;;;43.51;14.03
64644;BME280;51056;50.330;7.914;2022-07-24T15:17:44;100455.78;;;42.58;14.03
64644;BME280;51056;50.330;7.914;2022-07-24T15:20:48;100449.84;;;43.07;13.76
64644;BME280;51056;50.330;7.914;2022-07-24T15:23:51;100462.94;;;41.52;14.53
64644;BME280;51056;50.330;7.914;2022-07-24T15:26:55;100449.78;;;42.75;13.75
64644;BME280;51056;50.330;7.914;2022-07-24T15:29:58;100432.84;;;43.57;13.43
64644;BME280;51056;50.330;7.914;2022-07-24T15:33:02;100443.09;;;42.81;14.20
64644;BME280;51056;50.330;7.914;2022-07-24T15:36:06;100448.44;;;39.32;15.73
64644;BME280;51056;50.330;7.914;2022-07-24T15:39:10;100449.94;;;40.89;15.07
64644;BME280;51056;50.330;7.914;2022-07-24T15:42:13;100439.66;;;41.74;14.34
64644;BME280;51056;50.330;7.914;2022-07-24T15:45:17;100438.81;;;41.78;14.17
64644;BME280;51056;50.330;7.914;2022-07-24T15:48:20;100431.16;;;39.67;15.53
64644;BME280;51056;50.330;7.914;2022-07-24T15:51:25;100426.03;;;40.95;14.95
64644;BME280;51056;50.330;7.914;2022-07-24T15:54:28;100426.50;;;41.47;14.11
64644;BME280;51056;50.330;7.914;2022-07-24T15:57:32;100415.75;;;40.77;15.43
64644;BME280;51056;50.330;7.914;2022-07-24T16:00:35;100415.81;;;40.61;15.69
64644;BME280;51056;50.330;7.914;2022-07-24T16:03:40;100410.47;;;42.12;14.48
64644;BME280;51056;50.330;7.914;2022-07-24T16:06:45;100410.56;;;41.44;15.04
64644;BME280;51056;50.330;7.914;2022-07-24T16:09:49;100410.25;;;41.16;15.58
64644;BME280;51056;50.330;7.914;2022-07-24T16:12:53;100401.56;;;41.67;15.21
64644;BME280;51056;50.330;7.914;2022-07-24T16:15:56;100398.91;;;41.62;14.97
64644;BME280;51056;50.330;7.914;2022-07-24T16:19:01;100395.25;;;40.64;15.58
64644;BME280;51056;50.330;7.914;2022-07-24T16:22:04;100388.00;;;38.34;17.57
64644;BME280;51056;50.330;7.914;2022-07-24T16:25:08;100390.06;;;37.59;18.19
64644;BME280;51056;50.330;7.914;2022-07-24T16:28:12;100387.22;;;36.85;19.39
64644;BME280;51056;50.330;7.914;2022-07-24T16:31:15;100380.16;;;36.18;20.54
64644;BME280;51056;50.330;7.914;2022-07-24T16:34:19;100375.31;;;35.64;20.71
64644;BME280;51056;50.330;7.914;2022-07-24T16:37:22;100379.53;;;35.21;20.78
64644;BME280;51056;50.330;7.914;2022-07-24T16:40:26;100371.84;;;34.44;21.87